createdAt,value
2023-02-05T00:02:18.271Z,98788.44
2023-02-05T00:07:39.103Z,98797.81
2023-02-05T00:12:59.799Z,98802.16
2023-02-05T00:18:20.608Z,98799.72
2023-02-05T00:23:41.952Z,98801.56
2023-02-05T00:29:02.898Z,98801.56
2023-02-05T00:34:23.821Z,98799.84
2023-02-05T00:39:44.510Z,98783.72
2023-02-05T00:45:07.318Z,98784.56
2023-02-05T00:50:28.856Z,98789.09
2023-02-05T00:55:51.008Z,98777.22
2023-02-05T01:01:14.291Z,98779.75
2023-02-05T01:06:35.550Z,98781.44
2023-02-05T01:11:56.206Z,98779.53
2023-02-05T01:17:17.254Z,98779.63
2023-02-05T01:22:38.176Z,98770.31
2023-02-05T01:28:00.214Z,98775.50
2023-02-05T01:33:21.557Z,98783.91
2023-02-05T01:38:42.143Z,98785.59
2023-02-05T01:44:19.204Z,98779.63
2023-02-05T01:49:43.737Z,98781.41
2023-02-05T01:55:07.630Z,98770.34
2023-02-05T02:00:28.725Z,98781.41
2023-02-05T02:05:49.431Z,98778.91
2023-02-05T02:11:13.749Z,98782.31
2023-02-05T02:16:36.901Z,98757.59
2023-02-05T02:22:29.857Z,98750.69
2023-02-05T02:28:00.214Z,98745.66
2023-02-05T02:33:23.462Z,98747.22
2023-02-05T02:39:28.356Z,98742.09
2023-02-05T02:44:56.833Z,98735.31
2023-02-05T02:50:35.402Z,98725.09
2023-02-05T02:55:58.740Z,98726.03
2023-02-05T03:01:24.201Z,98727.00
2023-02-05T03:06:48.524Z,98728.53
2023-02-05T03:12:09.544Z,98725.84
2023-02-05T03:17:31.967Z,98709.41
2023-02-05T03:22:53.058Z,98712.03
2023-02-05T03:28:14.329Z,98712.13
2023-02-05T03:34:11.498Z,98714.66
2023-02-05T03:39:48.507Z,98696.84
2023-02-05T03:45:21.464Z,98707.19
2023-02-05T03:50:54.339Z,98715.09
2023-02-05T03:56:22.310Z,98717.78
2023-02-05T04:01:45.655Z,98717.75
2023-02-05T04:07:08.106Z,98725.41
2023-02-05T04:12:30.342Z,98723.59
2023-02-05T04:17:51.048Z,98725.13
2023-02-05T04:23:13.164Z,98725.19
2023-02-05T04:28:36.346Z,98717.53
2023-02-05T04:33:59.534Z,98729.47
2023-02-05T04:39:20.836Z,98756.81
2023-02-05T04:44:41.495Z,98751.81
2023-02-05T04:50:02.221Z,98748.66
2023-02-05T04:55:23.117Z,98741.91
2023-02-05T05:00:43.898Z,98762.50
2023-02-05T05:06:05.801Z,98769.41
2023-02-05T05:11:26.645Z,98771.78
2023-02-05T05:16:49.629Z,98780.31
2023-02-05T05:22:10.377Z,98772.75
2023-02-05T05:27:31.199Z,98777.88
2023-02-05T05:32:52.014Z,98769.16
2023-02-05T05:38:12.887Z,98770.13
2023-02-05T05:43:48.736Z,98782.19
2023-02-05T05:49:09.729Z,98774.41
2023-02-05T05:54:30.697Z,98754.47
2023-02-05T05:59:51.220Z,98772.47
2023-02-05T06:05:12.975Z,98780.25
2023-02-05T06:10:34.194Z,98768.38
2023-02-05T06:15:55.048Z,98776.28
2023-02-05T06:21:15.676Z,98777.25
2023-02-05T06:26:36.452Z,98785.78
2023-02-05T06:31:57.054Z,98783.31
2023-02-05T06:37:17.823Z,98777.28
2023-02-05T06:42:38.720Z,98778.16
2023-02-05T06:47:59.692Z,98787.53
2023-02-05T06:53:20.606Z,98787.41
2023-02-05T06:58:41.217Z,98801.81
2023-02-05T07:04:02.300Z,98808.53
2023-02-05T07:09:23.815Z,98810.28
2023-02-05T07:14:44.684Z,98804.34
2023-02-05T07:20:06.246Z,98805.13
2023-02-05T07:25:27.151Z,98799.03
2023-02-05T07:30:49.805Z,98799.84
2023-02-05T07:36:12.219Z,98808.34
2023-02-05T07:41:33.417Z,98815.13
2023-02-05T07:46:54.603Z,98798.81
2023-02-05T07:52:15.836Z,98803.03
2023-02-05T07:57:36.533Z,98803.84
2023-02-05T08:02:57.400Z,98813.28
2023-02-05T08:08:18.326Z,98803.09
2023-02-05T08:13:39.015Z,98811.56
2023-02-05T08:18:59.715Z,98816.53
2023-02-05T08:24:20.495Z,98806.16
2023-02-05T08:29:41.900Z,98796.78
2023-02-05T08:35:02.792Z,98790.00
2023-02-05T08:40:24.289Z,98773.72
2023-02-05T08:45:48.421Z,98781.38
2023-02-05T08:51:10.681Z,98782.25
2023-02-05T08:56:31.900Z,98775.50
2023-02-05T09:01:52.421Z,98763.72
2023-02-05T09:07:13.229Z,98777.38
2023-02-05T09:12:34.241Z,98760.25
2023-02-05T09:17:56.397Z,98766.91
2023-02-05T09:23:18.769Z,98758.22
2023-02-05T09:28:40.268Z,98742.63
2023-02-05T09:34:05.701Z,98745.97
2023-02-05T09:40:11.980Z,98742.66
2023-02-05T09:45:16.372Z,98747.63
2023-02-05T09:50:38.133Z,98736.75
2023-02-05T09:56:01.649Z,98728.88
2023-02-05T10:01:43.701Z,98726.25
2023-02-05T10:07:24.200Z,98708.72
2023-02-05T10:12:51.938Z,98705.22
2023-02-05T10:18:54.521Z,98688.91
2023-02-05T10:24:36.894Z,98703.22
2023-02-05T10:30:04.164Z,98699.22
2023-02-05T10:35:44.418Z,98692.09
2023-02-05T10:41:13.284Z,98693.78
2023-02-05T10:46:36.584Z,98688.41
2023-02-05T10:51:57.418Z,98683.97
2023-02-05T10:57:20.984Z,98689.94
2023-02-05T11:02:47.532Z,98675.50
2023-02-05T11:08:38.951Z,98664.59
2023-02-05T11:14:07.014Z,98649.91
2023-02-05T11:19:29.039Z,98641.53
2023-02-05T11:24:50.101Z,98656.97
2023-02-05T11:30:49.955Z,98655.97
2023-02-05T11:36:21.609Z,98647.78
2023-02-05T11:41:48.662Z,98647.78
2023-02-05T11:47:09.765Z,98640.06
2023-02-05T11:52:37.668Z,98647.66
2023-02-05T11:58:01.489Z,98647.69
2023-02-05T12:03:22.741Z,98644.94
2023-02-05T12:08:52.220Z,98645.41
2023-02-05T12:14:23.027Z,98636.03
2023-02-05T12:19:58.469Z,98641.28
2023-02-05T12:25:27.574Z,98647.97
2023-02-05T12:30:52.549Z,98646.16
2023-02-05T12:36:16.197Z,98643.66
2023-02-05T12:41:50.336Z,98625.88
2023-02-05T12:47:29.517Z,98625.78
2023-02-05T12:52:56.244Z,98617.22
2023-02-05T12:58:20.513Z,98614.59
2023-02-05T13:03:48.455Z,98611.00
2023-02-05T13:09:17.606Z,98595.75
2023-02-05T13:14:43.539Z,98602.81
2023-02-05T13:20:12.332Z,98602.81
2023-02-05T13:26:04.631Z,98610.81
2023-02-05T13:31:33.203Z,98601.72
2023-02-05T13:37:22.883Z,98603.88
2023-02-05T13:43:02.429Z,98603.06
2023-02-05T13:48:41.971Z,98604.75
2023-02-05T13:54:31.311Z,98607.47
2023-02-05T13:59:54.407Z,98592.13
2023-02-05T14:05:26.962Z,98590.69
2023-02-05T14:11:00.657Z,98601.00
2023-02-05T14:16:24.530Z,98599.94
2023-02-05T14:21:45.107Z,98605.09
2023-02-05T14:27:31.344Z,98601.81
2023-02-05T14:32:52.138Z,98597.38
2023-02-05T14:38:35.690Z,98608.72
2023-02-05T14:44:30.239Z,98605.44
2023-02-05T14:49:53.225Z,98605.75
2023-02-05T14:55:13.864Z,98611.09
2023-02-05T15:00:44.647Z,98625.25
2023-02-05T15:06:14.032Z,98614.09
2023-02-05T15:11:53.394Z,98624.44
2023-02-05T15:17:16.142Z,98626.03
2023-02-05T15:22:53.731Z,98614.19
2023-02-05T15:28:24.636Z,98604.19
2023-02-05T15:33:56.601Z,98611.13
2023-02-05T15:39:31.243Z,98609.50
2023-02-05T15:44:52.565Z,98629.16
2023-02-05T15:50:14.925Z,98636.81
2023-02-05T15:55:35.858Z,98657.22
2023-02-05T16:00:57.422Z,98655.50
2023-02-05T16:06:20.259Z,98664.63
2023-02-05T16:11:43.051Z,98671.25
2023-02-05T16:17:17.197Z,98675.72
2023-02-05T16:22:42.833Z,98677.66
2023-02-05T16:28:11.242Z,98687.09
2023-02-05T16:33:40.973Z,98697.44
2023-02-05T16:39:04.774Z,98695.00
2023-02-05T16:44:33.236Z,98683.09
2023-02-05T16:49:54.614Z,98678.69
2023-02-05T16:55:42.848Z,98676.16
2023-02-05T17:01:04.274Z,98684.72
2023-02-05T17:06:34.166Z,98682.03
2023-02-05T17:11:54.887Z,98689.66
2023-02-05T17:17:17.459Z,98701.69
2023-02-05T17:22:38.260Z,98704.88
2023-02-05T17:28:01.653Z,98696.09
2023-02-05T17:33:24.483Z,98693.25
2023-02-05T17:38:46.692Z,98689.72
2023-02-05T17:44:11.651Z,98689.56
2023-02-05T17:49:33.677Z,98697.66
2023-02-05T17:54:54.374Z,98701.41
2023-02-05T18:00:27.680Z,98696.97
2023-02-05T18:05:49.309Z,98704.63
2023-02-05T18:11:10.738Z,98697.41
2023-02-05T18:16:31.857Z,98691.19
2023-02-05T18:21:53.305Z,98690.06
2023-02-05T18:27:14.031Z,98697.03
2023-02-05T18:32:34.932Z,98691.53
2023-02-05T18:37:55.644Z,98690.84
2023-02-05T18:43:16.638Z,98692.38
2023-02-05T18:48:40.760Z,98697.81
2023-02-05T18:54:01.717Z,98712.69
2023-02-05T18:59:26.127Z,98690.63
2023-02-05T19:04:52.050Z,98694.06
2023-02-05T19:10:12.751Z,98703.50
2023-02-05T19:15:34.751Z,98690.00
2023-02-05T19:20:55.635Z,98699.66
2023-02-05T19:26:19.318Z,98708.75
2023-02-05T19:31:40.496Z,98720.88
2023-02-05T19:37:01.884Z,98721.75
2023-02-05T19:42:23.111Z,98740.44
2023-02-05T19:47:44.065Z,98749.94
2023-02-05T19:53:05.298Z,98754.28
2023-02-05T19:58:25.938Z,98779.97
2023-02-05T20:03:46.849Z,98777.47
2023-02-05T20:09:10.882Z,98786.78
2023-02-05T20:14:31.600Z,98770.56
2023-02-05T20:19:59.650Z,98774.81
2023-02-05T20:25:27.068Z,98781.00
2023-02-05T20:31:06.241Z,98790.72
2023-02-05T20:36:28.338Z,98799.47
2023-02-05T20:41:51.520Z,98812.22
2023-02-05T20:47:14.567Z,98806.34
2023-02-05T20:52:35.266Z,98815.56
2023-02-05T20:57:56.029Z,98823.28
2023-02-05T21:03:17.060Z,98819.09
2023-02-05T21:08:43.393Z,98820.03
2023-02-05T21:14:06.997Z,98812.41
2023-02-05T21:19:27.977Z,98825.06
2023-02-05T21:24:49.634Z,98815.72
2023-02-05T21:30:11.309Z,98814.84
2023-02-05T21:35:34.535Z,98819.50
2023-02-05T21:40:55.410Z,98834.06
2023-02-05T21:46:16.636Z,98819.66
2023-02-05T21:51:37.746Z,98825.75
2023-02-05T21:56:58.368Z,98829.31
2023-02-05T22:02:19.032Z,98835.19
2023-02-05T22:07:39.958Z,98848.09
2023-02-05T22:13:00.534Z,98860.16
2023-02-05T22:18:21.261Z,98863.56
2023-02-05T22:23:43.885Z,98867.00
2023-02-05T22:29:07.203Z,98861.84
2023-02-05T22:34:28.156Z,98865.31
2023-02-05T22:39:48.877Z,98866.13
2023-02-05T22:45:09.818Z,98861.78
2023-02-05T22:50:30.630Z,98869.47
2023-02-05T22:55:51.274Z,98884.97
2023-02-05T23:01:24.482Z,98885.84
2023-02-05T23:06:45.309Z,98884.94
2023-02-05T23:12:07.103Z,98888.41
2023-02-05T23:17:28.101Z,98889.16
2023-02-05T23:22:48.619Z,98890.81
2023-02-05T23:28:09.547Z,98901.13
2023-02-05T23:33:30.651Z,98897.81
2023-02-05T23:38:51.390Z,98891.09
2023-02-05T23:44:18.259Z,98888.56
2023-02-05T23:49:38.864Z,98896.19
2023-02-05T23:54:59.493Z,98892.03
